Pagrindinis puslapis
METAR-TAF:

METAR-TAF

Oro uostai :

Puerto Fransisko de Oreljana, Ekvadoras

platuma: 00-27-46S, ilguma: 076-59-12W, Aukštis: 254 m

Dabartinis oras

Ataskaita buvo paskelbta 30 minutes, ne 23:00 UTC
Vėjas 10 kt iš Pietų/Pietryčių
Temperatūra 24°C
Drėgmė 94%
Slėgis 1007 hPa
Matomumas: 8000 m
Išsisklaidę debesys ne aukštis 2600 ft
Išsisklaidę debesys ne aukštis 10000 ft
lietus

METAR: SECO 222300Z 16010KT 8000 -RA SCT026 SCT100 24/23 Q1007 RMK A2974

Laikas: 18:30 (23:30 UTC)


TAF: trūkstamas

Orai ataskaitas ir orų prognozės (METAR, TAF).

turimą stotys yra geltonos ir raudonos taškus žemėlapyje.

Perkelti pele per norėdami pamatyti stoties vardą.

Tada spustelėkite, norėdami matyti oro stebėjimo ir prognozės.

Norėdami pakeisti žemėlapį: spustelėkite ant žalios mygtukų su juodo kryžiaus žemyn,; žalią mygtuką su brūkšneliu, jei norite nutolinti; arba žalių rodyklių gretimoms žemėlapius.


METAR-TAF: